Time;durP1;ratioP1;P1;durP2;ratioP2;P2;SDS_P1;SDS_P2;PMS_P1;PMS_P2;Temp;Humidity;BMP_temperature;BMP_pressure;BME280_temperature;BME280_humidity;BME280_pressure;Samples;Min_cycle;Max_cycle;Signal;HPM_P1;HPM_P2
2021/06/08 00:00:17;;;;;;;;;15.25;15.25;;;;;;;;5002765;28;8888;-80
2021/06/08 00:02:44;;;;;;;;;21.25;20.75;;;;;;;;5001497;28;9027;-78
2021/06/08 00:05:11;;;;;;;;;14.50;13.75;;;;;;;;5002957;28;8887;-79
2021/06/08 00:07:38;;;;;;;;;14.75;14.25;;;;;;;;5002806;28;9721;-81
2021/06/08 00:10:07;;;;;;;;;22.25;17.75;;;;;;;;5002343;28;8874;-80
2021/06/08 00:12:35;;;;;;;;;16.75;16.75;;;;;;;;5001188;28;8859;-81
2021/06/08 00:15:03;;;;;;;;;15.50;14.75;;;;;;;;5001996;28;8952;-80
2021/06/08 00:17:30;;;;;;;;;15.00;15.00;;;;;;;;5007859;28;8870;-79
2021/06/08 00:19:57;;;;;;;;;10.75;10.75;;;;;;;;5001104;28;8878;-80
2021/06/08 00:22:25;;;;;;;;;14.25;13.75;;;;;;;;4999963;28;9588;-78
2021/06/08 00:24:52;;;;;;;;;17.33;17.00;;;;;;;;5002089;28;9337;-80
2021/06/08 00:27:19;;;;;;;;;17.00;15.00;;;;;;;;5002815;28;9088;-79
2021/06/08 00:29:47;;;;;;;;;23.75;23.75;;;;;;;;5000734;28;8863;-78
2021/06/08 00:32:14;;;;;;;;;16.00;15.50;;;;;;;;4999549;28;8843;-80
2021/06/08 00:34:41;;;;;;;;;22.75;16.75;;;;;;;;5009843;28;8870;-81
2021/06/08 00:37:08;;;;;;;;;16.00;16.00;;;;;;;;5002410;28;9603;-79
2021/06/08 00:39:34;;;;;;;;;22.33;22.33;;;;;;;;5009519;28;8975;-82
2021/06/08 00:42:02;;;;;;;;;19.67;19.67;;;;;;;;5009524;28;9542;-80
2021/06/08 00:44:28;;;;;;;;;21.33;17.00;;;;;;;;5009083;28;9016;-80
2021/06/08 00:46:57;;;;;;;;;21.75;21.50;;;;;;;;5009865;28;8950;-82
2021/06/08 00:49:24;;;;;;;;;23.00;21.25;;;;;;;;5008588;28;8957;-78
2021/06/08 00:51:51;;;;;;;;;22.00;21.00;;;;;;;;5015385;28;8854;-80
2021/06/08 00:54:17;;;;;;;;;21.00;19.75;;;;;;;;5007783;28;8955;-80
2021/06/08 00:56:46;;;;;;;;;24.00;21.33;;;;;;;;5009708;28;8870;-78
2021/06/08 00:59:13;;;;;;;;;23.33;21.67;;;;;;;;5008075;28;8949;-76
2021/06/08 01:01:40;;;;;;;;;24.00;22.00;;;;;;;;5008296;28;8924;-79
2021/06/08 01:04:10;;;;;;;;;24.00;22.00;;;;;;;;5006992;28;9041;-78
2021/06/08 01:06:39;;;;;;;;;25.00;23.33;;;;;;;;5010588;28;9297;-76
2021/06/08 01:09:07;;;;;;;;;25.33;24.67;;;;;;;;5009011;28;9751;-80
2021/06/08 01:11:35;;;;;;;;;22.33;20.33;;;;;;;;5007749;28;9254;-82
2021/06/08 01:14:02;;;;;;;;;18.00;15.33;;;;;;;;5009158;28;9278;-79
2021/06/08 01:16:30;;;;;;;;;21.33;18.67;;;;;;;;5007968;28;9352;-80
2021/06/08 01:18:57;;;;;;;;;22.67;21.67;;;;;;;;5008830;28;9121;-81
2021/06/08 01:21:27;;;;;;;;;17.67;17.67;;;;;;;;5008568;28;9232;-79
2021/06/08 01:23:54;;;;;;;;;25.33;21.33;;;;;;;;5012213;28;9189;-80
2021/06/08 01:26:24;;;;;;;;;21.67;21.67;;;;;;;;5008415;28;9161;-81
2021/06/08 01:28:51;;;;;;;;;13.00;13.00;;;;;;;;5007377;28;9107;-77
2021/06/08 01:31:20;;;;;;;;;24.33;23.33;;;;;;;;5005058;28;9085;-80
2021/06/08 01:33:47;;;;;;;;;17.00;16.33;;;;;;;;5004582;28;9116;-78
2021/06/08 01:36:16;;;;;;;;;20.33;20.00;;;;;;;;5008023;28;9057;-79
2021/06/08 01:38:45;;;;;;;;;25.00;23.00;;;;;;;;5007154;28;9105;-77
2021/06/08 01:41:13;;;;;;;;;24.00;23.33;;;;;;;;5008447;28;9139;-78
2021/06/08 01:43:41;;;;;;;;;19.67;19.67;;;;;;;;5008223;28;9108;-79
2021/06/08 01:46:09;;;;;;;;;20.33;20.33;;;;;;;;5002630;28;9142;-77
2021/06/08 01:48:36;;;;;;;;;20.33;20.00;;;;;;;;5005773;28;9132;-78
2021/06/08 01:51:08;;;;;;;;;24.67;22.33;;;;;;;;5003534;28;9266;-81
2021/06/08 01:53:40;;;;;;;;;21.33;21.33;;;;;;;;5006014;28;9290;-81
2021/06/08 01:56:10;;;;;;;;;20.00;20.00;;;;;;;;5003411;28;9363;-81
2021/06/08 01:58:41;;;;;;;;;23.67;23.00;;;;;;;;5004908;28;9326;-79
2021/06/08 02:01:12;;;;;;;;;24.00;22.00;;;;;;;;5003652;28;10017;-79
2021/06/08 02:03:41;;;;;;;;;21.00;20.33;;;;;;;;5003156;28;9289;-79
2021/06/08 02:06:14;;;;;;;;;24.67;24.00;;;;;;;;5003815;28;9126;-80
2021/06/08 02:08:44;;;;;;;;;23.67;22.00;;;;;;;;5004879;28;9285;-79
2021/06/08 02:11:15;;;;;;;;;25.67;25.00;;;;;;;;5000462;28;9304;-80
2021/06/08 02:13:48;;;;;;;;;26.33;22.67;;;;;;;;5003306;28;9488;-78
2021/06/08 02:16:19;;;;;;;;;26.00;26.00;;;;;;;;5005455;28;9213;-81
2021/06/08 02:18:47;;;;;;;;;25.00;25.00;;;;;;;;5004203;28;9412;-80
2021/06/08 02:21:17;;;;;;;;;22.00;22.00;;;;;;;;5003304;28;9292;-79
2021/06/08 02:23:44;;;;;;;;;23.67;23.67;;;;;;;;5003805;28;9195;-81
2021/06/08 02:26:13;;;;;;;;;24.00;22.33;;;;;;;;5004183;28;9048;-81
2021/06/08 02:28:41;;;;;;;;;24.00;24.00;;;;;;;;5005735;28;9741;-81
2021/06/08 02:31:09;;;;;;;;;18.00;18.00;;;;;;;;4998362;28;8991;-80
2021/06/08 02:33:38;;;;;;;;;25.33;22.00;;;;;;;;5003655;28;9458;-80
2021/06/08 02:36:06;;;;;;;;;31.00;28.00;;;;;;;;5003289;28;9107;-81
2021/06/08 02:38:34;;;;;;;;;28.00;27.67;;;;;;;;5004256;28;9385;-80
2021/06/08 02:41:02;;;;;;;;;28.33;26.00;;;;;;;;5004148;28;9197;-80
2021/06/08 02:43:32;;;;;;;;;29.00;26.33;;;;;;;;5003169;28;9200;-79
2021/06/08 02:46:00;;;;;;;;;20.25;20.25;;;;;;;;5004178;28;9332;-79
2021/06/08 02:48:28;;;;;;;;;26.50;26.00;;;;;;;;4998629;28;9517;-80
2021/06/08 02:50:56;;;;;;;;;24.00;23.25;;;;;;;;5007917;28;9667;-79
2021/06/08 02:53:24;;;;;;;;;27.75;24.75;;;;;;;;5004701;28;9503;-81
2021/06/08 02:55:52;;;;;;;;;20.75;19.00;;;;;;;;5002122;28;9610;-81
2021/06/08 02:58:20;;;;;;;;;20.75;20.75;;;;;;;;5004724;28;10706;-77
2021/06/08 03:00:49;;;;;;;;;20.33;19.33;;;;;;;;4999849;28;9363;-80
2021/06/08 03:03:18;;;;;;;;;31.50;28.50;;;;;;;;5004818;28;9471;-79
2021/06/08 03:05:49;;;;;;;;;27.25;25.75;;;;;;;;5019568;28;9593;-81
2021/06/08 03:08:23;;;;;;;;;25.75;25.75;;;;;;;;5008908;28;10360;-77
2021/06/08 03:10:51;;;;;;;;;26.50;23.50;;;;;;;;5002492;28;9679;-77
2021/06/08 03:13:20;;;;;;;;;25.00;23.00;;;;;;;;5000062;28;10424;-77
2021/06/08 03:15:52;;;;;;;;;28.25;28.25;;;;;;;;5005778;28;9472;-80
2021/06/08 03:18:24;;;;;;;;;28.00;26.75;;;;;;;;5002746;28;10382;-80
2021/06/08 03:20:56;;;;;;;;;29.25;28.50;;;;;;;;5004061;28;9602;-81
2021/06/08 03:23:25;;;;;;;;;32.25;28.50;;;;;;;;5006314;28;9483;-80
2021/06/08 03:25:53;;;;;;;;;21.75;21.75;;;;;;;;5002883;28;9569;-81
2021/06/08 03:28:23;;;;;;;;;29.50;27.25;;;;;;;;5003750;28;9508;-80
2021/06/08 03:30:52;;;;;;;;;18.75;18.75;;;;;;;;4999709;28;9520;-80
2021/06/08 03:33:21;;;;;;;;;29.00;26.75;;;;;;;;5002900;28;9410;-81
2021/06/08 03:35:49;;;;;;;;;27.75;26.00;;;;;;;;5000054;28;9514;-80
2021/06/08 03:38:17;;;;;;;;;31.50;29.00;;;;;;;;5004421;28;9461;-80
2021/06/08 03:40:45;;;;;;;;;27.25;26.25;;;;;;;;5004442;28;9487;-79
2021/06/08 03:43:11;;;;;;;;;32.00;28.25;;;;;;;;5003470;28;9717;-81
2021/06/08 03:45:38;;;;;;;;;28.00;26.00;;;;;;;;5003520;28;9566;-80
2021/06/08 03:48:07;;;;;;;;;30.00;28.50;;;;;;;;4998267;28;9687;-79
2021/06/08 03:50:34;;;;;;;;;28.75;27.75;;;;;;;;5004392;28;9590;-80
2021/06/08 03:53:03;;;;;;;;;17.25;16.25;;;;;;;;5001868;28;9512;-80
2021/06/08 03:55:30;;;;;;;;;31.00;29.00;;;;;;;;5003150;28;9707;-79
2021/06/08 03:58:00;;;;;;;;;36.25;30.75;;;;;;;;5003128;28;9628;-82
2021/06/08 04:00:27;;;;;;;;;30.25;26.50;;;;;;;;5002046;28;9610;-81
2021/06/08 04:02:54;;;;;;;;;26.00;24.00;;;;;;;;5004118;28;9629;-76
2021/06/08 04:05:23;;;;;;;;;28.50;25.75;;;;;;;;5001271;28;10321;-81
2021/06/08 04:07:50;;;;;;;;;31.50;29.75;;;;;;;;5003650;28;9573;-77
2021/06/08 04:10:20;;;;;;;;;32.75;31.25;;;;;;;;4993097;28;9492;-80
2021/06/08 04:12:47;;;;;;;;;27.50;26.75;;;;;;;;5001137;28;9598;-83
2021/06/08 04:15:15;;;;;;;;;30.75;29.00;;;;;;;;5002322;28;9508;-80
2021/06/08 04:17:42;;;;;;;;;28.50;27.75;;;;;;;;4996516;28;9838;-79
2021/06/08 04:20:11;;;;;;;;;24.00;24.00;;;;;;;;5009299;28;9765;-91
2021/06/08 04:22:44;;;;;;;;;25.75;25.75;;;;;;;;5002735;28;10317;-85
2021/06/08 04:25:11;;;;;;;;;31.50;29.75;;;;;;;;5003602;28;9776;-89
2021/06/08 04:27:38;;;;;;;;;32.50;29.25;;;;;;;;4999519;28;9587;-85
2021/06/08 04:30:07;;;;;;;;;25.00;23.25;;;;;;;;5003178;28;9740;-84
2021/06/08 04:32:34;;;;;;;;;24.75;24.50;;;;;;;;5007956;28;9805;-80
2021/06/08 04:35:01;;;;;;;;;28.50;28.50;;;;;;;;5002486;28;9651;-80
2021/06/08 04:37:28;;;;;;;;;32.25;30.00;;;;;;;;5002989;28;9732;-79
2021/06/08 04:39:57;;;;;;;;;22.25;22.25;;;;;;;;5000853;28;9818;-78
2021/06/08 04:42:24;;;;;;;;;37.25;34.00;;;;;;;;5003431;28;9783;-79
2021/06/08 04:44:54;;;;;;;;;36.00;33.25;;;;;;;;5001574;28;9804;-77
2021/06/08 04:47:22;;;;;;;;;27.50;27.25;;;;;;;;5002715;28;9835;-78
2021/06/08 04:49:49;;;;;;;;;39.50;31.50;;;;;;;;4998210;28;9853;-75
2021/06/08 04:52:16;;;;;;;;;33.00;30.25;;;;;;;;5002783;28;10477;-77
2021/06/08 04:54:43;;;;;;;;;36.00;32.75;;;;;;;;4999346;28;9896;-79
2021/06/08 04:57:13;;;;;;;;;30.25;28.00;;;;;;;;5000297;28;9655;-76
2021/06/08 04:59:47;;;;;;;;;25.00;22.50;;;;;;;;5003843;28;9736;-80
2021/06/08 05:02:16;;;;;;;;;30.50;28.25;;;;;;;;5001630;28;9763;-78
2021/06/08 05:04:44;;;;;;;;;30.50;28.75;;;;;;;;5001697;28;9671;-80
2021/06/08 05:07:16;;;;;;;;;36.00;35.00;;;;;;;;5001848;28;9650;-78
2021/06/08 05:09:46;;;;;;;;;38.75;33.75;;;;;;;;5002736;28;9657;-76
2021/06/08 05:12:17;;;;;;;;;41.00;35.25;;;;;;;;5001036;28;9863;-79
2021/06/08 05:14:50;;;;;;;;;31.00;31.00;;;;;;;;5001474;28;9707;-77
2021/06/08 05:17:20;;;;;;;;;33.00;33.00;;;;;;;;4998778;28;9640;-85
2021/06/08 05:19:48;;;;;;;;;35.25;33.50;;;;;;;;5002592;28;9753;-81
2021/06/08 05:22:19;;;;;;;;;34.00;33.50;;;;;;;;5008096;28;9989;-80
2021/06/08 05:24:49;;;;;;;;;35.50;31.25;;;;;;;;5005293;28;10626;-82
2021/06/08 05:27:18;;;;;;;;;35.75;32.75;;;;;;;;5005544;28;9840;-82
2021/06/08 05:29:45;;;;;;;;;37.25;35.50;;;;;;;;5005233;28;9548;-83
2021/06/08 05:32:13;;;;;;;;;29.50;29.50;;;;;;;;5005101;28;10650;-91
2021/06/08 05:34:42;;;;;;;;;36.00;33.75;;;;;;;;5006720;28;9840;-78
2021/06/08 05:37:10;;;;;;;;;35.50;33.25;;;;;;;;4997409;28;9623;-75
2021/06/08 05:39:38;;;;;;;;;41.25;35.75;;;;;;;;5006641;28;9761;-80
2021/06/08 05:42:08;;;;;;;;;35.50;32.00;;;;;;;;5003775;28;9764;-78
2021/06/08 05:44:36;;;;;;;;;38.00;35.75;;;;;;;;5006260;28;9666;-80
2021/06/08 05:47:04;;;;;;;;;36.50;34.50;;;;;;;;5004841;28;10508;-76
2021/06/08 05:49:32;;;;;;;;;36.50;34.00;;;;;;;;5005177;28;9648;-80
2021/06/08 05:51:59;;;;;;;;;35.50;34.00;;;;;;;;5006024;28;10431;-79
2021/06/08 05:54:27;;;;;;;;;32.75;32.75;;;;;;;;5005427;28;9706;-77
2021/06/08 05:56:55;;;;;;;;;35.00;33.25;;;;;;;;5006105;28;9568;-78
2021/06/08 05:59:22;;;;;;;;;33.75;31.75;;;;;;;;5005957;28;9776;-80
2021/06/08 06:01:51;;;;;;;;;36.00;34.00;;;;;;;;5004190;28;9641;-78
2021/06/08 06:04:20;;;;;;;;;26.00;26.00;;;;;;;;5000045;28;9799;-81
2021/06/08 06:06:47;;;;;;;;;32.25;30.50;;;;;;;;5004591;28;9575;-80
2021/06/08 06:09:16;;;;;;;;;27.25;27.25;;;;;;;;5006212;28;9730;-75
2021/06/08 06:11:46;;;;;;;;;34.75;33.00;;;;;;;;5004461;28;9667;-79
2021/06/08 06:14:13;;;;;;;;;33.75;33.75;;;;;;;;5006556;28;9616;-84
2021/06/08 06:16:44;;;;;;;;;33.50;33.50;;;;;;;;5005035;28;9648;-79
2021/06/08 06:19:13;;;;;;;;;32.25;29.25;;;;;;;;5004781;28;9745;-80
2021/06/08 06:21:41;;;;;;;;;33.25;30.25;;;;;;;;5007292;28;9830;-81
2021/06/08 06:24:11;;;;;;;;;29.50;29.50;;;;;;;;5007219;28;9603;-74
2021/06/08 06:26:38;;;;;;;;;32.25;32.25;;;;;;;;5000970;28;9633;-75
2021/06/08 06:29:08;;;;;;;;;31.50;28.75;;;;;;;;5004048;28;9756;-75
2021/06/08 06:31:35;;;;;;;;;28.50;25.00;;;;;;;;5007323;28;9605;-75
2021/06/08 06:34:02;;;;;;;;;38.75;34.25;;;;;;;;5002942;28;9488;-75
2021/06/08 06:36:33;;;;;;;;;32.75;32.75;;;;;;;;5005051;28;9701;-75
2021/06/08 06:39:04;;;;;;;;;35.50;34.25;;;;;;;;5005437;28;9805;-75
2021/06/08 06:41:32;;;;;;;;;33.67;30.33;;;;;;;;5003824;28;9579;-77
2021/06/08 06:43:58;;;;;;;;;31.75;30.00;;;;;;;;5004424;28;9430;-76
2021/06/08 06:46:31;;;;;;;;;38.25;36.25;;;;;;;;5002611;28;9972;-76
2021/06/08 06:48:58;;;;;;;;;35.75;33.25;;;;;;;;5004431;28;9502;-75
2021/06/08 06:51:25;;;;;;;;;42.25;36.50;;;;;;;;5003314;28;9663;-75
2021/06/08 06:53:55;;;;;;;;;39.00;35.50;;;;;;;;5004223;28;9788;-75
2021/06/08 06:56:23;;;;;;;;;43.25;37.00;;;;;;;;5003787;28;10534;-76
2021/06/08 06:58:49;;;;;;;;;41.00;35.50;;;;;;;;5003341;28;9948;-75
2021/06/08 07:01:20;;;;;;;;;36.75;34.75;;;;;;;;5002389;28;9681;-75
2021/06/08 07:03:50;;;;;;;;;46.00;37.50;;;;;;;;5003976;28;9787;-75
2021/06/08 07:06:17;;;;;;;;;49.00;38.50;;;;;;;;5004118;28;10159;-74
2021/06/08 07:08:44;;;;;;;;;37.00;34.50;;;;;;;;5003685;28;9875;-74
2021/06/08 07:11:13;;;;;;;;;47.50;38.75;;;;;;;;5004060;28;9990;-74
2021/06/08 07:13:40;;;;;;;;;37.75;34.50;;;;;;;;5002992;28;9963;-75
2021/06/08 07:16:07;;;;;;;;;40.00;35.75;;;;;;;;5002464;28;9612;-75
2021/06/08 07:18:34;;;;;;;;;39.00;33.00;;;;;;;;5003268;28;9630;-76
2021/06/08 07:21:05;;;;;;;;;41.00;35.75;;;;;;;;5006983;28;9667;-75
2021/06/08 07:23:32;;;;;;;;;37.75;36.00;;;;;;;;5006200;28;9849;-74
2021/06/08 07:25:59;;;;;;;;;43.75;37.00;;;;;;;;5002867;28;9575;-76
2021/06/08 07:28:28;;;;;;;;;45.75;39.25;;;;;;;;5003056;28;9669;-74
2021/06/08 07:30:56;;;;;;;;;44.33;37.33;;;;;;;;5002599;28;9602;-76
2021/06/08 07:33:29;;;;;;;;;44.67;38.67;;;;;;;;5002940;28;9495;-76
2021/06/08 07:36:01;;;;;;;;;42.00;39.00;;;;;;;;5004667;28;9331;-75
2021/06/08 07:38:32;;;;;;;;;43.67;39.33;;;;;;;;5002737;28;9281;-75
2021/06/08 07:41:02;;;;;;;;;43.67;38.33;;;;;;;;4999578;28;9232;-75
2021/06/08 07:43:35;;;;;;;;;47.33;37.00;;;;;;;;5002496;28;9200;-75
2021/06/08 07:46:06;;;;;;;;;45.67;39.00;;;;;;;;5002485;28;9056;-75
2021/06/08 07:48:34;;;;;;;;;48.00;39.67;;;;;;;;5003661;28;9391;-75
2021/06/08 07:51:04;;;;;;;;;45.00;38.00;;;;;;;;4994826;28;9115;-75
2021/06/08 07:53:32;;;;;;;;;48.67;39.67;;;;;;;;5003840;28;8882;-76
2021/06/08 07:56:00;;;;;;;;;51.67;42.33;;;;;;;;5004606;28;9116;-75
2021/06/08 07:58:27;;;;;;;;;36.00;33.50;;;;;;;;5003496;28;10195;-75
2021/06/08 08:00:58;;;;;;;;;45.67;37.33;;;;;;;;5001650;28;8807;-75
2021/06/08 08:03:26;;;;;;;;;47.33;39.67;;;;;;;;5002584;28;8970;-76
2021/06/08 08:05:54;;;;;;;;;44.00;35.67;;;;;;;;5003594;28;8954;-75
2021/06/08 08:08:21;;;;;;;;;39.75;35.00;;;;;;;;5002834;28;9136;-74
2021/06/08 08:10:49;;;;;;;;;48.00;39.25;;;;;;;;5003350;28;9663;-75
2021/06/08 08:13:21;;;;;;;;;46.25;38.00;;;;;;;;5002168;28;8870;-76
2021/06/08 08:15:49;;;;;;;;;49.00;40.75;;;;;;;;5001356;28;8848;-76
2021/06/08 08:18:18;;;;;;;;;40.25;35.75;;;;;;;;5003091;28;8858;-75
2021/06/08 08:20:46;;;;;;;;;37.75;35.00;;;;;;;;5003013;28;9657;-78
2021/06/08 08:23:14;;;;;;;;;45.25;36.75;;;;;;;;5000163;28;8855;-82
2021/06/08 08:25:42;;;;;;;;;48.50;40.50;;;;;;;;5000391;28;9465;-79
2021/06/08 08:28:09;;;;;;;;;38.00;34.75;;;;;;;;5002704;28;9738;-79
2021/06/08 08:30:37;;;;;;;;;44.50;38.25;;;;;;;;5004520;28;8791;-78
2021/06/08 08:33:04;;;;;;;;;47.75;38.50;;;;;;;;5001891;28;9747;-79
2021/06/08 08:35:33;;;;;;;;;42.25;36.50;;;;;;;;5002381;28;8870;-79
2021/06/08 08:37:59;;;;;;;;;42.00;36.50;;;;;;;;5003087;28;9052;-78
2021/06/08 08:40:27;;;;;;;;;48.25;38.00;;;;;;;;5002800;28;8909;-78
2021/06/08 08:42:55;;;;;;;;;38.25;34.75;;;;;;;;5000699;28;9677;-78
2021/06/08 08:45:22;;;;;;;;;42.50;37.50;;;;;;;;5002948;28;9691;-79
2021/06/08 08:47:49;;;;;;;;;47.50;37.00;;;;;;;;5001765;28;8872;-78
2021/06/08 08:50:17;;;;;;;;;44.75;38.75;;;;;;;;5002911;28;8863;-77
2021/06/08 08:52:55;;;;;;;;;45.50;38.25;;;;;;;;5001479;28;8961;-78
2021/06/08 08:55:24;;;;;;;;;45.25;38.50;;;;;;;;5004713;28;8862;-79
2021/06/08 08:57:52;;;;;;;;;38.00;33.75;;;;;;;;5005078;28;8878;-78
2021/06/08 09:00:21;;;;;;;;;45.25;37.50;;;;;;;;5002999;28;8870;-80
2021/06/08 09:02:48;;;;;;;;;39.00;35.50;;;;;;;;5005572;28;8983;-80
2021/06/08 09:05:15;;;;;;;;;43.00;36.75;;;;;;;;5005348;28;8874;-78
2021/06/08 09:07:42;;;;;;;;;38.50;35.00;;;;;;;;5007065;28;8889;-78
2021/06/08 09:10:13;;;;;;;;;33.75;32.25;;;;;;;;5006085;28;8894;-78
2021/06/08 09:12:40;;;;;;;;;44.75;36.00;;;;;;;;5006727;28;8885;-79
2021/06/08 09:15:09;;;;;;;;;44.50;37.50;;;;;;;;5006906;28;8878;-79
2021/06/08 09:17:39;;;;;;;;;41.50;36.50;;;;;;;;5005260;28;8896;-78
2021/06/08 09:20:08;;;;;;;;;42.00;35.50;;;;;;;;5003781;28;8869;-78
2021/06/08 09:22:53;;;;;;;;;39.20;35.80;;;;;;;;5004620;28;9664;-78
2021/06/08 09:25:41;;;;;;;;;32.40;30.40;;;;;;;;5003484;28;9021;-79
2021/06/08 09:28:26;;;;;;;;;31.60;28.80;;;;;;;;5006429;28;8946;-79
2021/06/08 09:31:02;;;;;;;;;36.00;32.80;;;;;;;;4999477;28;8819;-78
2021/06/08 09:33:32;;;;;;;;;35.00;30.00;;;;;;;;5004895;28;8899;-78
2021/06/08 09:36:00;;;;;;;;;34.80;30.80;;;;;;;;5005481;28;8878;-79
2021/06/08 09:38:50;;;;;;;;;33.80;32.00;;;;;;;;5005099;28;8937;-79
2021/06/08 09:41:40;;;;;;;;;34.20;31.60;;;;;;;;5001545;28;8890;-79
2021/06/08 09:44:10;;;;;;;;;44.40;37.80;;;;;;;;5001031;28;8879;-78
2021/06/08 09:46:46;;;;;;;;;42.33;35.67;;;;;;;;5002545;28;8956;-79
2021/06/08 09:49:14;;;;;;;;;34.20;31.00;;;;;;;;5004514;28;8882;-79
2021/06/08 09:51:53;;;;;;;;;38.20;34.60;;;;;;;;5005904;28;8971;-78
2021/06/08 09:54:31;;;;;;;;;33.80;32.00;;;;;;;;5006556;28;8858;-78
2021/06/08 09:57:29;;;;;;;;;41.80;33.20;;;;;;;;5004718;28;9016;-78
2021/06/08 09:59:58;;;;;;;;;42.20;35.60;;;;;;;;5005524;28;8988;-79
2021/06/08 10:02:32;;;;;;;;;34.00;31.40;;;;;;;;5004477;28;8882;-80
2021/06/08 10:05:19;;;;;;;;;39.80;34.60;;;;;;;;5004757;28;8893;-81
2021/06/08 10:07:47;;;;;;;;;44.40;37.40;;;;;;;;5006660;28;8856;-78
2021/06/08 10:10:16;;;;;;;;;40.00;34.80;;;;;;;;5004370;28;8917;-80
2021/06/08 10:13:02;;;;;;;;;45.20;37.60;;;;;;;;5008286;28;8993;-78
2021/06/08 10:15:31;;;;;;;;;41.60;36.00;;;;;;;;5002885;28;8881;-79
2021/06/08 10:18:04;;;;;;;;;42.80;35.20;;;;;;;;5005035;28;9692;-79
2021/06/08 10:20:33;;;;;;;;;38.20;34.40;;;;;;;;5005892;28;8867;-79
2021/06/08 10:23:03;;;;;;;;;29.20;29.20;;;;;;;;5004881;28;9820;-79
2021/06/08 10:25:31;;;;;;;;;39.40;34.80;;;;;;;;5005176;28;8882;-78
2021/06/08 10:28:01;;;;;;;;;31.80;30.00;;;;;;;;5004558;28;8991;-79
2021/06/08 10:30:27;;;;;;;;;38.20;32.60;;;;;;;;5004962;28;8804;-79
2021/06/08 10:32:55;;;;;;;;;31.20;30.00;;;;;;;;5004192;28;8872;-78
2021/06/08 10:35:22;;;;;;;;;30.60;29.00;;;;;;;;5005105;28;8900;-81
2021/06/08 10:37:52;;;;;;;;;25.80;25.60;;;;;;;;5006632;28;8862;-80
2021/06/08 10:40:20;;;;;;;;;30.80;30.00;;;;;;;;5008779;28;8876;-81
2021/06/08 10:42:47;;;;;;;;;28.20;28.20;;;;;;;;5002616;28;8992;-79
2021/06/08 10:45:16;;;;;;;;;25.40;25.40;;;;;;;;5003903;28;9678;-78
2021/06/08 10:47:45;;;;;;;;;32.60;31.60;;;;;;;;5003314;28;8878;-79
2021/06/08 10:50:27;;;;;;;;;32.20;29.80;;;;;;;;5004825;28;8890;-79
2021/06/08 10:52:56;;;;;;;;;29.80;29.00;;;;;;;;5004124;28;8898;-81
2021/06/08 10:55:28;;;;;;;;;27.60;27.60;;;;;;;;5000851;28;8859;-77
2021/06/08 10:57:55;;;;;;;;;28.60;26.80;;;;;;;;5003713;28;9704;-79
2021/06/08 11:00:39;;;;;;;;;31.40;29.20;;;;;;;;5004293;28;8891;-79
2021/06/08 11:03:07;;;;;;;;;33.00;31.00;;;;;;;;5005807;28;8943;-78
2021/06/08 11:05:56;;;;;;;;;31.60;30.00;;;;;;;;5004858;28;8896;-80
2021/06/08 11:09:00;;;;;;;;;24.20;22.60;;;;;;;;5000196;28;8835;-80
2021/06/08 11:11:50;;;;;;;;;28.80;27.00;;;;;;;;4955207;28;8973;-80
2021/06/08 11:17:47;;;;;;;;;24.20;24.20;;;;;;;;5001821;28;8858;-80
2021/06/08 11:20:22;;;;;;;;;22.80;22.40;;;;;;;;5007352;28;8991;-79
2021/06/08 11:23:05;;;;;;;;;30.20;28.40;;;;;;;;5004726;28;10091;-78
2021/06/08 11:25:42;;;;;;;;;24.20;24.20;;;;;;;;4996961;28;8928;-81
2021/06/08 11:28:12;;;;;;;;;22.20;20.60;;;;;;;;5002367;28;8944;-79
2021/06/08 11:30:40;;;;;;;;;26.00;26.00;;;;;;;;5003833;28;8807;-79
2021/06/08 11:33:25;;;;;;;;;23.40;23.40;;;;;;;;5003332;28;8880;-79
2021/06/08 11:35:52;;;;;;;;;21.00;21.00;;;;;;;;4999573;28;8977;-80
2021/06/08 11:38:28;;;;;;;;;24.60;23.00;;;;;;;;5004405;28;8868;-79
2021/06/08 11:41:10;;;;;;;;;19.00;19.00;;;;;;;;5003172;28;9548;-79
2021/06/08 11:43:59;;;;;;;;;20.60;20.60;;;;;;;;5002059;28;9669;-79
2021/06/08 11:46:32;;;;;;;;;20.20;19.40;;;;;;;;5001867;28;8903;-79
2021/06/08 11:49:13;;;;;;;;;21.60;21.60;;;;;;;;5002124;28;8985;-79
2021/06/08 11:51:47;;;;;;;;;22.80;22.00;;;;;;;;5002434;28;8923;-80
2021/06/08 11:54:16;;;;;;;;;21.20;21.20;;;;;;;;5002762;28;8859;-79
2021/06/08 11:56:52;;;;;;;;;16.80;16.40;;;;;;;;5004512;28;8871;-79
2021/06/08 11:59:21;;;;;;;;;14.20;13.60;;;;;;;;5000101;28;10281;-80
2021/06/08 12:01:50;;;;;;;;;15.80;15.00;;;;;;;;5003027;28;8863;-80
2021/06/08 12:04:19;;;;;;;;;18.00;18.00;;;;;;;;5003710;28;8855;-79
2021/06/08 12:07:10;;;;;;;;;15.40;15.40;;;;;;;;5002786;28;9017;-81
2021/06/08 12:09:43;;;;;;;;;13.20;12.20;;;;;;;;5005832;28;8890;-80
2021/06/08 12:12:12;;;;;;;;;10.00;10.00;;;;;;;;5000604;28;8905;-79
2021/06/08 12:14:53;;;;;;;;;14.60;13.60;;;;;;;;5003587;28;8884;-80
2021/06/08 12:17:20;;;;;;;;;13.00;13.00;;;;;;;;5000544;28;8867;-79
2021/06/08 12:19:48;;;;;;;;;12.00;12.00;;;;;;;;5002329;28;8884;-78
2021/06/08 12:22:21;;;;;;;;;12.80;12.80;;;;;;;;5003734;28;8870;-79
2021/06/08 12:24:59;;;;;;;;;12.20;12.00;;;;;;;;5001864;28;8869;-79
2021/06/08 12:27:37;;;;;;;;;12.00;12.00;;;;;;;;5006192;28;8931;-79
2021/06/08 12:30:06;;;;;;;;;8.40;8.40;;;;;;;;4999661;28;8959;-81
2021/06/08 12:32:32;;;;;;;;;15.20;15.20;;;;;;;;5002886;28;8882;-78
2021/06/08 12:35:01;;;;;;;;;15.20;14.00;;;;;;;;5003790;28;8856;-79
2021/06/08 12:37:28;;;;;;;;;10.40;10.40;;;;;;;;5002429;28;8894;-80
2021/06/08 12:39:57;;;;;;;;;13.20;13.20;;;;;;;;5001810;28;8868;-79
2021/06/08 12:42:25;;;;;;;;;17.00;15.00;;;;;;;;5001225;28;8886;-80
2021/06/08 12:44:53;;;;;;;;;14.60;11.00;;;;;;;;5005688;28;8875;-80
2021/06/08 12:47:22;;;;;;;;;13.40;13.40;;;;;;;;5001684;28;8862;-79
2021/06/08 12:49:49;;;;;;;;;13.60;13.00;;;;;;;;5003148;28;8996;-79
2021/06/08 12:52:19;;;;;;;;;11.20;11.20;;;;;;;;5003426;28;9001;-79
2021/06/08 12:54:48;;;;;;;;;12.00;10.60;;;;;;;;5002010;28;8944;-79
2021/06/08 12:57:26;;;;;;;;;12.20;12.20;;;;;;;;5002678;28;9037;-79
2021/06/08 12:59:56;;;;;;;;;12.60;12.60;;;;;;;;4997401;28;8996;-79
2021/06/08 13:02:24;;;;;;;;;10.20;10.20;;;;;;;;5006638;28;8835;-79
2021/06/08 13:04:51;;;;;;;;;11.40;10.40;;;;;;;;5001165;28;8843;-80
2021/06/08 13:07:21;;;;;;;;;10.80;10.80;;;;;;;;5003061;28;8933;-79
2021/06/08 13:09:50;;;;;;;;;13.20;11.40;;;;;;;;5003184;28;8871;-79
2021/06/08 13:12:18;;;;;;;;;10.40;10.40;;;;;;;;5001088;28;8884;-79
2021/06/08 13:14:45;;;;;;;;;13.60;13.60;;;;;;;;5003297;28;8881;-79
2021/06/08 13:17:23;;;;;;;;;11.00;11.00;;;;;;;;5001750;28;8877;-79
2021/06/08 13:19:51;;;;;;;;;6.80;6.80;;;;;;;;5003041;28;8878;-80
2021/06/08 13:22:21;;;;;;;;;11.00;11.00;;;;;;;;5002463;28;8856;-81
2021/06/08 13:24:49;;;;;;;;;10.80;10.80;;;;;;;;5002052;28;8863;-80
2021/06/08 13:27:20;;;;;;;;;12.20;12.20;;;;;;;;5003346;28;8966;-79
2021/06/08 13:29:47;;;;;;;;;11.20;11.20;;;;;;;;5001547;28;8879;-79
2021/06/08 13:32:22;;;;;;;;;9.40;9.40;;;;;;;;5002788;28;8819;-80
2021/06/08 13:35:10;;;;;;;;;12.40;11.00;;;;;;;;5000586;28;9702;-80
2021/06/08 13:37:40;;;;;;;;;11.00;11.00;;;;;;;;5002239;28;8955;-78
2021/06/08 13:40:18;;;;;;;;;10.20;10.20;;;;;;;;5003183;28;8943;-81
2021/06/08 13:43:13;;;;;;;;;14.80;11.80;;;;;;;;5004183;28;8871;-80
2021/06/08 13:45:42;;;;;;;;;10.40;9.00;;;;;;;;4982162;28;8964;-79
2021/06/08 13:48:24;;;;;;;;;10.40;9.80;;;;;;;;5005128;28;8932;-80
2021/06/08 13:51:10;;;;;;;;;11.00;11.00;;;;;;;;5005599;28;8863;-80
2021/06/08 13:53:39;;;;;;;;;13.20;13.20;;;;;;;;5009387;28;8874;-81
2021/06/08 13:56:10;;;;;;;;;8.60;8.60;;;;;;;;5004998;28;8913;-80
2021/06/08 14:01:26;;;;;;;;;11.60;10.20;;;;;;;;5004008;28;8894;-81
2021/06/08 14:04:05;;;;;;;;;11.40;11.40;;;;;;;;5005396;28;9128;-80
2021/06/08 14:06:33;;;;;;;;;12.80;12.80;;;;;;;;5006226;28;8854;-79
2021/06/08 14:09:07;;;;;;;;;9.80;9.80;;;;;;;;5005292;28;8947;-79
2021/06/08 14:11:41;;;;;;;;;9.00;7.20;;;;;;;;5006435;28;8997;-80
2021/06/08 14:14:10;;;;;;;;;10.80;10.80;;;;;;;;5005067;28;9885;-80
2021/06/08 14:16:37;;;;;;;;;7.80;7.80;;;;;;;;5005445;28;8876;-80
2021/06/08 14:19:04;;;;;;;;;10.80;10.80;;;;;;;;5005534;28;8858;-80
2021/06/08 14:21:31;;;;;;;;;9.00;9.00;;;;;;;;5004885;28;8968;-79
2021/06/08 14:23:58;;;;;;;;;10.60;10.60;;;;;;;;4997946;28;8897;-79
2021/06/08 14:26:35;;;;;;;;;11.20;11.20;;;;;;;;5003370;28;8890;-79
2021/06/08 14:29:05;;;;;;;;;9.60;9.60;;;;;;;;5002979;28;8953;-77
2021/06/08 14:31:32;;;;;;;;;11.60;11.60;;;;;;;;4998240;28;8824;-79
2021/06/08 14:33:59;;;;;;;;;12.00;12.00;;;;;;;;5004484;28;9024;-81
2021/06/08 14:36:28;;;;;;;;;10.40;10.40;;;;;;;;5004828;28;8868;-80
2021/06/08 14:38:56;;;;;;;;;14.80;11.00;;;;;;;;5004248;28;8895;-81
2021/06/08 14:41:23;;;;;;;;;12.60;10.60;;;;;;;;5005008;28;9022;-79
2021/06/08 14:43:51;;;;;;;;;12.60;11.00;;;;;;;;5003629;28;8875;-79
2021/06/08 14:46:18;;;;;;;;;12.40;12.40;;;;;;;;5003736;28;8862;-79
2021/06/08 14:48:45;;;;;;;;;12.20;11.80;;;;;;;;5003071;28;8957;-79
2021/06/08 14:51:12;;;;;;;;;10.00;10.00;;;;;;;;5004390;28;8894;-80
2021/06/08 14:53:39;;;;;;;;;9.80;9.80;;;;;;;;5004634;28;8854;-79